Time;durP1;ratioP1;P1;durP2;ratioP2;P2;SDS_P1;SDS_P2;PMS_P1;PMS_P2;Temp;Humidity;BMP_temperature;BMP_pressure;BME280_temperature;BME280_humidity;BME280_pressure;Samples;Min_cycle;Max_cycle;Signal;HPM_P1;HPM_P2
2022/11/26 00:02:22;;;;;;;16.37;6.33;;;;;;;7.37;100.00;100076.91;5131363;28;20223;-81
2022/11/26 00:04:52;;;;;;;18.10;6.13;;;;;;;7.26;100.00;100081.72;5127926;28;20206;-81
2022/11/26 00:07:24;;;;;;;13.50;6.60;;;;;;;7.22;100.00;100081.84;5134008;28;20259;-80
2022/11/26 00:09:56;;;;;;;16.97;6.77;;;;;;;7.09;100.00;100090.19;5131824;28;20246;-80
2022/11/26 00:12:27;;;;;;;13.07;6.97;;;;;;;7.18;100.00;100102.19;5135592;27;20259;-80
2022/11/26 00:14:56;;;;;;;14.03;6.83;;;;;;;7.17;100.00;100097.84;5136980;27;20250;-80
2022/11/26 00:17:25;;;;;;;11.33;7.03;;;;;;;7.22;100.00;100106.44;5135122;27;20198;-81
2022/11/26 00:19:53;;;;;;;13.60;7.40;;;;;;;7.08;100.00;100103.44;5134011;27;20189;-81
2022/11/26 00:22:25;;;;;;;12.67;6.73;;;;;;;7.02;100.00;100103.63;5130623;27;20243;-81
2022/11/26 00:24:55;;;;;;;13.37;7.20;;;;;;;7.00;100.00;100098.41;5138109;27;20645;-81
2022/11/26 00:27:26;;;;;;;17.90;7.57;;;;;;;7.00;100.00;100114.22;5071991;28;20188;-80
2022/11/26 00:29:54;;;;;;;12.87;6.97;;;;;;;7.01;100.00;100121.19;5066067;28;20203;-80
2022/11/26 00:32:25;;;;;;;21.57;7.33;;;;;;;7.02;100.00;100122.06;5069718;28;20687;-80
2022/11/26 00:34:54;;;;;;;15.60;7.20;;;;;;;6.90;100.00;100123.34;5070598;28;20201;-80
2022/11/26 00:37:25;;;;;;;15.70;8.33;;;;;;;6.97;100.00;100135.41;5069892;28;20188;-81
2022/11/26 00:39:58;;;;;;;17.90;8.50;;;;;;;6.89;100.00;100134.78;5072374;28;20242;-81
2022/11/26 00:42:27;;;;;;;16.43;8.80;;;;;;;6.96;100.00;100138.09;5072062;28;20188;-80
2022/11/26 00:44:57;;;;;;;14.67;8.40;;;;;;;6.99;100.00;100135.34;5065224;28;20276;-81
2022/11/26 00:47:26;;;;;;;16.37;8.90;;;;;;;6.95;100.00;100153.03;5064437;28;20188;-81
2022/11/26 00:49:54;;;;;;;14.37;8.30;;;;;;;6.88;100.00;100143.59;5068200;28;20270;-80
2022/11/26 00:52:28;;;;;;;15.97;9.27;;;;;;;7.02;100.00;100149.25;5107661;27;20211;-81
2022/11/26 00:54:58;;;;;;;17.57;9.37;;;;;;;7.02;100.00;100157.16;5132852;27;20240;-81
2022/11/26 00:57:27;;;;;;;12.50;8.20;;;;;;;6.95;100.00;100153.03;5137333;27;20190;-81
2022/11/26 00:59:56;;;;;;;18.30;8.43;;;;;;;6.96;100.00;100159.16;5128320;27;20198;-80
2022/11/26 01:02:24;;;;;;;13.87;8.70;;;;;;;7.02;100.00;100157.16;5131209;27;20191;-81
2022/11/26 01:04:53;;;;;;;14.33;9.30;;;;;;;6.96;100.00;100159.16;5131823;27;20204;-81
2022/11/26 01:07:21;;;;;;;16.87;9.20;;;;;;;7.05;100.00;100162.34;5129545;27;20236;-81
2022/11/26 01:09:49;;;;;;;19.57;10.13;;;;;;;7.00;100.00;100159.00;5132822;27;20220;-81
2022/11/26 01:12:21;;;;;;;18.77;9.63;;;;;;;6.90;100.00;100157.56;5132548;27;20294;-81
2022/11/26 01:14:50;;;;;;;14.30;9.33;;;;;;;6.89;100.00;100159.34;5132793;27;20183;-80
2022/11/26 01:17:18;;;;;;;17.50;9.87;;;;;;;6.82;100.00;100159.59;5132959;27;20256;-80
2022/11/26 01:19:46;;;;;;;17.37;8.93;;;;;;;6.91;100.00;100161.06;5133936;27;20183;-81
2022/11/26 01:22:20;;;;;;;16.30;8.97;;;;;;;6.83;100.00;100169.22;5138171;27;20244;-80
2022/11/26 01:24:49;;;;;;;14.27;9.83;;;;;;;6.83;100.00;100169.22;5137088;27;20202;-80
2022/11/26 01:27:20;;;;;;;15.67;9.53;;;;;;;6.88;100.00;100169.94;5136895;27;20679;-80
2022/11/26 01:29:49;;;;;;;17.33;9.00;;;;;;;6.78;100.00;100182.53;5131239;27;20208;-80
2022/11/26 01:32:17;;;;;;;14.60;8.90;;;;;;;6.68;100.00;100182.88;5133800;27;20222;-80
2022/11/26 01:34:46;;;;;;;17.07;8.63;;;;;;;6.62;100.00;100177.81;5129733;27;20193;-80
2022/11/26 01:37:14;;;;;;;16.30;8.10;;;;;;;6.59;100.00;100181.41;5129269;27;20198;-80
2022/11/26 01:39:42;;;;;;;13.40;8.67;;;;;;;6.54;100.00;100184.16;5127858;27;20243;-81
2022/11/26 01:42:26;;;;;;;19.63;8.97;;;;;;;6.50;100.00;100186.94;5125968;27;20247;-80
2022/11/26 01:44:54;;;;;;;15.63;8.10;;;;;;;6.50;100.00;100181.69;5132016;27;20641;-80
2022/11/26 01:47:25;;;;;;;17.47;8.43;;;;;;;6.39;100.00;100187.28;5136084;27;20188;-80
2022/11/26 01:50:39;;;;;;;15.27;8.17;;;;;;;6.42;100.00;100192.44;5130613;27;20194;-80
2022/11/26 01:53:13;;;;;;;13.23;7.73;;;;;;;6.23;100.00;100199.16;5132120;27;20198;-80
2022/11/26 01:55:46;;;;;;;16.27;8.87;;;;;;;6.16;100.00;100202.88;5128220;27;20198;-80
2022/11/26 01:58:21;;;;;;;19.13;8.33;;;;;;;6.20;100.00;100207.16;5133829;27;20217;-80
2022/11/26 02:00:51;;;;;;;15.90;8.47;;;;;;;6.12;100.00;100219.66;5131406;27;20242;-80
2022/11/26 02:03:21;;;;;;;15.73;8.33;;;;;;;6.09;100.00;100219.75;5092955;27;20198;-81
2022/11/26 02:05:59;;;;;;;12.70;8.60;;;;;;;6.07;100.00;100219.78;5133381;27;20224;-80
2022/11/26 02:08:30;;;;;;;15.43;9.60;;;;;;;6.02;100.00;100219.06;5080540;27;20227;-81
2022/11/26 02:10:59;;;;;;;16.03;8.13;;;;;;;6.01;100.00;100225.22;5135833;27;20190;-80
2022/11/26 02:13:29;;;;;;;14.37;8.20;;;;;;;5.96;100.00;100219.22;5130712;27;20243;-80
2022/11/26 02:16:03;;;;;;;15.17;8.13;;;;;;;5.80;100.00;100226.66;5135078;27;20191;-80
2022/11/26 02:18:41;;;;;;;13.97;7.60;;;;;;;5.90;100.00;100230.78;5135863;27;20216;-80
2022/11/26 02:21:20;;;;;;;15.37;8.43;;;;;;;5.87;100.00;100230.81;5129500;27;20202;-80
2022/11/26 02:24:22;;;;;;;14.87;8.00;;;;;;;5.84;100.00;100230.91;5132745;27;20214;-81
2022/11/26 02:27:26;;;;;;;16.33;8.33;;;;;;;5.86;100.00;100241.38;5129945;27;20243;-80
2022/11/26 02:30:11;;;;;;;13.97;8.17;;;;;;;5.75;100.00;100253.06;5131706;27;20710;-80
2022/11/26 02:32:58;;;;;;;17.67;8.60;;;;;;;5.71;100.00;100259.31;5077613;27;20226;-80
2022/11/26 02:35:34;;;;;;;15.13;8.37;;;;;;;5.70;100.00;100260.22;5126962;27;20239;-80
2022/11/26 02:38:06;;;;;;;13.43;8.20;;;;;;;5.61;100.00;100260.44;5131834;27;20202;-80
2022/11/26 02:40:35;;;;;;;18.60;8.90;;;;;;;5.55;100.00;100260.59;5129925;27;20653;-80
2022/11/26 02:43:04;;;;;;;17.50;9.73;;;;;;;5.54;100.00;100258.88;5132546;27;20198;-81
2022/11/26 02:45:40;;;;;;;19.03;9.40;;;;;;;5.55;100.00;100265.84;5128389;27;20190;-80
2022/11/26 02:48:14;;;;;;;22.87;10.43;;;;;;;5.50;100.00;100258.97;5125187;27;20202;-80
2022/11/26 02:50:47;;;;;;;19.83;9.73;;;;;;;5.48;100.00;100272.16;5129633;27;20202;-81
2022/11/26 02:53:19;;;;;;;17.30;9.47;;;;;;;5.52;100.00;100273.81;5128006;27;20240;-80
2022/11/26 02:55:53;;;;;;;20.03;10.40;;;;;;;5.48;100.00;100277.41;5135130;27;20186;-80
2022/11/26 02:58:22;;;;;;;17.87;10.00;;;;;;;5.61;100.00;100272.72;5131882;27;20194;-80
2022/11/26 03:00:54;;;;;;;20.37;9.73;;;;;;;5.63;100.00;100286.69;5129065;27;20251;-80
2022/11/26 03:03:27;;;;;;;21.97;10.10;;;;;;;5.61;100.00;100283.25;5147277;27;20194;-80
2022/11/26 03:05:59;;;;;;;17.33;9.33;;;;;;;5.56;100.00;100282.47;5131808;27;20243;-80
2022/11/26 03:08:29;;;;;;;15.00;8.87;;;;;;;5.43;100.00;100285.44;5137433;27;20239;-80
2022/11/26 03:10:57;;;;;;;19.43;8.80;;;;;;;5.34;100.00;100287.41;5051446;28;20189;-80
2022/11/26 03:13:27;;;;;;;45.93;9.47;;;;;;;5.09;100.00;100289.75;5048690;28;20679;-80
2022/11/26 03:15:57;;;;;;;68.87;10.33;;;;;;;4.99;100.00;100280.38;5050416;28;20240;-80
2022/11/26 03:18:26;;;;;;;37.70;9.17;;;;;;;4.86;100.00;100283.28;5047351;28;20193;-80
2022/11/26 03:20:56;;;;;;;49.63;10.30;;;;;;;4.82;100.00;100294.72;5046617;28;20247;-80
2022/11/26 03:23:25;;;;;;;52.87;9.40;;;;;;;4.70;100.00;100291.53;5051297;28;20483;-80
2022/11/26 03:25:54;;;;;;;30.93;8.57;;;;;;;4.62;100.00;100290.81;5048702;28;20228;-80
2022/11/26 03:28:22;;;;;;;29.80;8.07;;;;;;;4.72;100.00;100297.59;5048706;28;20703;-80
2022/11/26 03:30:51;;;;;;;59.67;9.87;;;;;;;4.85;100.00;100297.31;5045657;28;20648;-80
2022/11/26 03:33:21;;;;;;;74.90;10.43;;;;;;;4.90;100.00;100302.44;5011083;28;20237;-80
2022/11/26 03:35:50;;;;;;;27.67;9.30;;;;;;;4.91;100.00;100304.16;5039316;28;20230;-80
2022/11/26 03:38:21;;;;;;;54.57;10.03;;;;;;;4.89;100.00;100317.31;5066368;28;20188;-80
2022/11/26 03:40:56;;;;;;;83.77;10.97;;;;;;;4.68;100.00;100316.94;5068011;28;20204;-80
2022/11/26 03:43:27;;;;;;;107.00;11.63;;;;;;;4.44;100.00;100321.81;5022421;28;20196;-80
2022/11/26 03:45:55;;;;;;;33.40;8.67;;;;;;;4.56;100.00;100323.31;5069812;28;20184;-80
2022/11/26 03:48:26;;;;;;;20.37;7.87;;;;;;;4.59;100.00;100328.50;5067860;28;20192;-80
2022/11/26 03:50:54;;;;;;;63.30;11.10;;;;;;;4.47;100.00;100332.22;5080340;27;20202;-80
2022/11/26 03:53:25;;;;;;;37.43;7.50;;;;;;;4.57;100.00;100322.41;5011379;28;20213;-80
2022/11/26 03:55:54;;;;;;;74.97;10.43;;;;;;;4.43;100.00;100320.06;5007179;28;20193;-80
2022/11/26 03:58:24;;;;;;;39.90;8.67;;;;;;;4.58;100.00;100325.00;5009474;28;20728;-80
2022/11/26 04:00:53;;;;;;;44.90;8.10;;;;;;;4.52;100.00;100322.50;5009038;28;20202;-80
2022/11/26 04:03:22;;;;;;;45.60;8.33;;;;;;;4.29;100.00;100325.59;5011420;28;20302;-80
2022/11/26 04:05:52;;;;;;;21.87;7.80;;;;;;;4.49;100.00;100314.69;5006282;28;20194;-80
2022/11/26 04:08:20;;;;;;;28.33;8.00;;;;;;;4.43;100.00;100324.44;5011269;28;20191;-80
2022/11/26 04:10:49;;;;;;;47.57;9.33;;;;;;;4.35;100.00;100313.25;5030081;28;20190;-80
2022/11/26 04:13:22;;;;;;;34.90;9.03;;;;;;;4.36;100.00;100307.13;5129757;28;20731;-80
2022/11/26 04:15:51;;;;;;;52.90;13.80;;;;;;;4.16;100.00;100312.75;5126853;28;20194;-80
2022/11/26 04:18:20;;;;;;;49.60;12.87;;;;;;;4.22;100.00;100313.50;5134220;28;20186;-80
2022/11/26 04:20:48;;;;;;;81.00;13.90;;;;;;;4.19;100.00;100316.19;5125441;28;20194;-80
2022/11/26 04:23:21;;;;;;;71.83;13.00;;;;;;;4.14;100.00;100318.00;5134041;28;20653;-80
2022/11/26 04:25:49;;;;;;;70.90;11.50;;;;;;;4.06;100.00;100314.69;5129092;28;20209;-80
2022/11/26 04:28:19;;;;;;;44.63;8.67;;;;;;;3.99;100.00;100318.31;5129674;28;20221;-80
2022/11/26 04:30:49;;;;;;;35.20;7.97;;;;;;;4.03;100.00;100323.47;5082271;28;20192;-81
2022/11/26 04:33:17;;;;;;;16.77;7.10;;;;;;;4.07;100.00;100323.41;5087923;28;20227;-80
2022/11/26 04:35:46;;;;;;;22.67;7.53;;;;;;;4.08;100.00;100315.53;5090804;28;20246;-80
2022/11/26 04:38:15;;;;;;;34.90;7.77;;;;;;;4.11;100.00;100327.69;5088684;28;20192;-80
2022/11/26 04:40:48;;;;;;;42.43;8.33;;;;;;;4.07;100.00;100320.81;5087383;28;20192;-80
2022/11/26 04:43:17;;;;;;;75.43;11.43;;;;;;;4.09;100.00;100319.88;4991352;28;20242;-80
2022/11/26 04:45:45;;;;;;;26.10;8.50;;;;;;;4.13;100.00;100318.91;4987840;28;20208;-80
2022/11/26 04:48:14;;;;;;;62.67;8.90;;;;;;;4.03;100.00;100330.47;4994851;28;20226;-80
2022/11/26 04:50:43;;;;;;;40.60;8.10;;;;;;;4.05;100.00;100333.91;4994498;28;20689;-80
2022/11/26 04:53:11;;;;;;;15.00;7.23;;;;;;;4.07;100.00;100339.16;4989467;28;20215;-80
2022/11/26 04:55:40;;;;;;;16.90;7.77;;;;;;;3.76;100.00;100339.66;5009990;28;20704;-80
2022/11/26 04:58:10;;;;;;;19.13;8.63;;;;;;;3.56;100.00;100342.63;5031449;28;20198;-80
2022/11/26 05:00:38;;;;;;;18.93;8.37;;;;;;;3.69;100.00;100344.19;5046430;27;20248;-80
2022/11/26 05:03:07;;;;;;;77.17;11.37;;;;;;;3.66;100.00;100359.91;5133853;27;20194;-80
2022/11/26 05:05:35;;;;;;;65.13;11.37;;;;;;;3.61;100.00;100366.16;5131463;27;20201;-79
2022/11/26 05:08:04;;;;;;;24.30;9.37;;;;;;;3.68;100.00;100378.25;5071126;28;20299;-80
2022/11/26 05:10:32;;;;;;;60.40;12.27;;;;;;;3.62;100.00;100378.34;5069465;28;20189;-80
2022/11/26 05:13:01;;;;;;;51.97;9.80;;;;;;;3.66;100.00;100380.88;5070250;28;20572;-80
2022/11/26 05:15:31;;;;;;;18.87;8.83;;;;;;;3.69;100.00;100382.59;5069082;28;20745;-79
2022/11/26 05:18:02;;;;;;;64.73;9.30;;;;;;;3.71;100.00;100386.06;5033439;28;20186;-80
2022/11/26 05:20:31;;;;;;;152.57;13.43;;;;;;;3.72;100.00;100387.78;5031502;28;20194;-80
2022/11/26 05:22:59;;;;;;;44.43;8.57;;;;;;;3.65;100.00;100378.28;5028387;28;20198;-79
2022/11/26 05:25:28;;;;;;;19.23;6.97;;;;;;;3.54;100.00;100380.22;5042710;28;20663;-80
2022/11/26 05:27:56;;;;;;;61.57;9.03;;;;;;;3.58;100.00;100384.53;5087329;28;20711;-80
2022/11/26 05:30:25;;;;;;;65.43;8.77;;;;;;;3.67;100.00;100387.00;5086373;28;20192;-80
2022/11/26 05:32:54;;;;;;;47.30;8.17;;;;;;;3.82;100.00;100385.88;5083402;28;20231;-80
2022/11/26 05:35:24;;;;;;;21.73;7.53;;;;;;;3.77;100.00;100393.84;5095641;27;20203;-79
2022/11/26 05:37:52;;;;;;;83.57;8.63;;;;;;;3.58;100.00;100387.16;5131020;27;20244;-80
2022/11/26 05:40:21;;;;;;;82.83;8.87;;;;;;;3.47;100.00;100396.91;5136715;27;20190;-79
2022/11/26 05:42:50;;;;;;;110.43;11.17;;;;;;;3.40;100.00;100404.00;5136857;27;20190;-80
2022/11/26 05:45:19;;;;;;;78.43;8.63;;;;;;;3.45;100.00;100400.41;5135327;27;20195;-80
2022/11/26 05:47:47;;;;;;;81.60;9.33;;;;;;;3.57;100.00;100409.88;5131849;27;20190;-80
2022/11/26 05:50:17;;;;;;;34.43;6.60;;;;;;;3.69;100.00;100414.91;5125397;27;20264;-80
2022/11/26 05:52:45;;;;;;;20.63;4.93;;;;;;;3.73;100.00;100411.34;5129656;27;20251;-80
2022/11/26 05:55:15;;;;;;;92.07;9.07;;;;;;;3.83;100.00;100406.81;5126837;27;20214;-80
2022/11/26 05:57:43;;;;;;;38.10;5.57;;;;;;;3.83;100.00;100409.44;5136113;27;20227;-80
2022/11/26 06:00:13;;;;;;;32.77;5.97;;;;;;;3.79;100.00;100418.25;5127198;27;20657;-80
2022/11/26 06:02:42;;;;;;;42.93;6.80;;;;;;;3.77;100.00;100429.66;5132972;27;20235;-80
2022/11/26 06:05:11;;;;;;;44.87;6.77;;;;;;;3.72;100.00;100427.97;5132337;27;20316;-80
2022/11/26 06:07:41;;;;;;;129.00;10.33;;;;;;;3.71;100.00;100428.84;5133480;27;20186;-80
2022/11/26 06:10:13;;;;;;;43.07;6.17;;;;;;;3.74;100.00;100434.03;5135301;27;20182;-80
2022/11/26 06:12:41;;;;;;;56.73;8.63;;;;;;;3.66;100.00;100442.91;5127737;27;20229;-80
2022/11/26 06:15:10;;;;;;;17.33;6.17;;;;;;;3.70;100.00;100445.47;5129372;27;20295;-80
2022/11/26 06:17:39;;;;;;;28.20;6.63;;;;;;;3.66;100.00;100451.63;5132812;27;20190;-80
2022/11/26 06:20:08;;;;;;;41.80;6.77;;;;;;;3.65;100.00;100449.03;5129099;27;20202;-80
2022/11/26 06:22:42;;;;;;;60.23;8.30;;;;;;;3.72;100.00;100443.69;5128826;27;20193;-80
2022/11/26 06:25:14;;;;;;;59.17;8.60;;;;;;;3.71;100.00;100446.31;5132577;27;20228;-80
2022/11/26 06:27:42;;;;;;;31.40;6.37;;;;;;;3.67;100.00;100448.13;5128486;27;20210;-80
2022/11/26 06:30:12;;;;;;;12.33;5.77;;;;;;;3.87;100.00;100447.81;5134429;27;20646;-80
2022/11/26 06:32:40;;;;;;;36.30;6.17;;;;;;;3.78;100.00;100447.97;5129942;27;20288;-80
2022/11/26 06:35:10;;;;;;;19.20;7.20;;;;;;;3.97;100.00;100451.16;5129451;27;20218;-80
2022/11/26 06:37:38;;;;;;;16.90;5.90;;;;;;;4.05;100.00;100453.63;5128907;27;20214;-79
2022/11/26 06:40:16;;;;;;;13.27;6.27;;;;;;;4.00;100.00;100462.47;5135346;27;20193;-80
2022/11/26 06:42:49;;;;;;;16.43;6.40;;;;;;;3.96;100.00;100473.03;5131316;27;20202;-79
2022/11/26 06:45:18;;;;;;;12.07;6.03;;;;;;;4.05;100.00;100474.59;5134903;27;20243;-80
2022/11/26 06:47:50;;;;;;;8.07;5.60;;;;;;;4.10;100.00;100475.41;5132226;27;20194;-80
2022/11/26 06:50:21;;;;;;;7.87;5.30;;;;;;;4.08;100.00;100483.31;5131012;27;20195;-80
2022/11/26 06:52:51;;;;;;;8.93;5.03;;;;;;;4.06;100.00;100490.34;5135274;27;20326;-80
2022/11/26 06:55:22;;;;;;;10.90;5.27;;;;;;;4.05;100.00;100496.44;5135173;27;20231;-80
2022/11/26 06:57:51;;;;;;;8.40;5.40;;;;;;;4.13;100.00;100497.19;5131309;27;20191;-80
2022/11/26 07:00:21;;;;;;;20.03;10.67;;;;;;;4.05;100.00;100495.56;5133558;27;20194;-80
2022/11/26 07:02:50;;;;;;;14.50;6.77;;;;;;;4.13;100.00;100496.31;5129213;27;20649;-80
2022/11/26 07:05:19;;;;;;;8.33;5.00;;;;;;;4.14;100.00;100491.06;5127870;27;20194;-80
2022/11/26 07:07:47;;;;;;;22.27;7.00;;;;;;;4.24;100.00;100492.63;5129732;27;20190;-80
2022/11/26 07:10:16;;;;;;;39.73;8.80;;;;;;;4.26;100.00;100496.13;5130360;27;20194;-80
2022/11/26 07:12:47;;;;;;;27.33;9.43;;;;;;;4.31;100.00;100504.75;5131780;27;20206;-80
2022/11/26 07:15:15;;;;;;;45.33;10.73;;;;;;;4.38;100.00;100513.41;5124533;27;20210;-80
2022/11/26 07:17:44;;;;;;;51.07;10.47;;;;;;;4.05;100.00;100524.41;5128176;27;20228;-80
2022/11/26 07:20:15;;;;;;;26.13;8.47;;;;;;;4.25;100.00;100532.88;5134587;27;20251;-80
2022/11/26 07:22:44;;;;;;;58.93;10.00;;;;;;;4.31;100.00;100532.75;5134019;27;20187;-80
2022/11/26 07:25:16;;;;;;;108.40;11.47;;;;;;;4.18;100.00;100532.09;5131529;27;20213;-80
2022/11/26 07:27:49;;;;;;;84.33;10.97;;;;;;;4.24;100.00;100525.84;5007497;28;20206;-80
2022/11/26 07:30:18;;;;;;;30.40;8.00;;;;;;;4.29;100.00;100539.78;5005548;28;20209;-80
2022/11/26 07:32:47;;;;;;;86.40;12.03;;;;;;;4.01;100.00;100545.44;5011530;28;20709;-80
2022/11/26 07:35:16;;;;;;;34.67;7.00;;;;;;;4.14;100.00;100553.13;5011423;28;20214;-80
2022/11/26 07:37:45;;;;;;;43.80;8.20;;;;;;;4.17;100.00;100547.84;5011951;28;20198;-80
2022/11/26 07:40:15;;;;;;;30.73;7.30;;;;;;;4.09;100.00;100542.72;5008252;28;20245;-80
2022/11/26 07:42:46;;;;;;;36.23;7.73;;;;;;;4.22;100.00;100551.25;5008889;28;20191;-80
2022/11/26 07:45:20;;;;;;;32.43;8.20;;;;;;;4.23;100.00;100550.34;5036786;27;20186;-80
2022/11/26 07:47:48;;;;;;;28.70;7.47;;;;;;;4.30;100.00;100558.09;5129755;27;20186;-80
2022/11/26 07:50:19;;;;;;;57.43;7.97;;;;;;;4.10;100.00;100560.19;5134110;27;20183;-80
2022/11/26 07:52:48;;;;;;;28.43;6.93;;;;;;;4.20;100.00;100563.53;5129940;27;20198;-80
2022/11/26 07:55:16;;;;;;;27.40;6.67;;;;;;;4.26;100.00;100559.06;5128515;28;20218;-81
2022/11/26 07:57:46;;;;;;;24.40;6.87;;;;;;;4.26;100.00;100559.06;5130236;28;20245;-80
2022/11/26 08:00:16;;;;;;;44.50;8.17;;;;;;;4.33;100.00;100559.81;5133065;28;20186;-80
2022/11/26 08:02:45;;;;;;;40.97;7.53;;;;;;;4.27;100.00;100563.41;5134009;28;20202;-80
2022/11/26 08:05:13;;;;;;;28.23;7.97;;;;;;;4.40;100.00;100571.94;5126382;27;20213;-80
2022/11/26 08:07:41;;;;;;;21.43;6.80;;;;;;;4.31;100.00;100572.94;5130312;28;20190;-80
2022/11/26 08:10:11;;;;;;;24.20;6.43;;;;;;;4.40;100.00;100574.56;5065781;28;20219;-80
2022/11/26 08:12:39;;;;;;;33.70;6.27;;;;;;;4.41;100.00;100580.69;5065641;28;20250;-80
2022/11/26 08:15:11;;;;;;;35.27;7.57;;;;;;;4.43;100.00;100581.50;5065346;28;20224;-80
2022/11/26 08:17:41;;;;;;;19.30;5.20;;;;;;;4.46;100.00;100584.09;5065366;28;20200;-80
2022/11/26 08:20:10;;;;;;;33.47;7.60;;;;;;;4.62;100.00;100587.31;5038084;28;20196;-80
2022/11/26 08:22:39;;;;;;;80.67;12.63;;;;;;;4.60;100.00;100580.34;5064492;28;20189;-80
2022/11/26 08:25:09;;;;;;;41.03;10.30;;;;;;;4.76;100.00;100586.22;5070786;28;20188;-80
2022/11/26 08:27:38;;;;;;;123.97;11.17;;;;;;;4.57;100.00;100584.78;5078529;28;20183;-80
2022/11/26 08:30:08;;;;;;;38.33;5.93;;;;;;;4.67;100.00;100585.50;5074481;28;20212;-80
2022/11/26 08:32:40;;;;;;;53.07;7.83;;;;;;;4.79;100.00;100590.53;5085728;28;20269;-80
2022/11/26 08:35:09;;;;;;;30.13;6.10;;;;;;;4.84;100.00;100588.72;5092063;28;20280;-80
2022/11/26 08:37:37;;;;;;;31.53;7.20;;;;;;;4.78;100.00;100594.06;5094886;28;20200;-80
2022/11/26 08:40:07;;;;;;;44.87;7.13;;;;;;;4.98;100.00;100597.19;5087328;28;20253;-80
2022/11/26 08:42:36;;;;;;;36.17;6.70;;;;;;;4.98;100.00;100593.69;5087163;28;20196;-80
2022/11/26 08:45:05;;;;;;;17.07;6.17;;;;;;;5.08;100.00;100592.66;5086668;28;20231;-80
2022/11/26 08:47:34;;;;;;;31.30;6.27;;;;;;;5.12;100.00;100586.47;5092128;28;20187;-80
2022/11/26 08:50:06;;;;;;;26.47;6.07;;;;;;;4.85;100.00;100587.81;5088082;28;20195;-80
2022/11/26 08:52:34;;;;;;;49.97;6.33;;;;;;;4.85;100.00;100586.06;5091641;28;20615;-80
2022/11/26 08:55:03;;;;;;;25.93;5.53;;;;;;;4.91;100.00;100581.56;5091525;28;20318;-80
2022/11/26 08:57:33;;;;;;;24.17;5.80;;;;;;;5.08;100.00;100583.00;5117133;27;20198;-79
2022/11/26 09:00:02;;;;;;;43.10;7.63;;;;;;;4.98;100.00;100575.31;5136395;27;20606;-80
2022/11/26 09:02:31;;;;;;;46.23;7.73;;;;;;;5.02;100.00;100583.13;5133488;27;20648;-80
2022/11/26 09:04:59;;;;;;;36.67;7.70;;;;;;;5.10;100.00;100586.47;5131880;27;20229;-80
2022/11/26 09:07:30;;;;;;;86.90;10.57;;;;;;;4.85;100.00;100585.19;5137067;27;20198;-80
2022/11/26 09:09:59;;;;;;;32.13;7.30;;;;;;;5.02;100.00;100588.38;5130469;27;20289;-80
2022/11/26 09:12:27;;;;;;;23.23;7.10;;;;;;;5.08;100.00;100595.28;5134412;27;20187;-79
2022/11/26 09:14:56;;;;;;;57.67;10.70;;;;;;;4.83;100.00;100598.34;5131055;27;20222;-80
2022/11/26 09:17:24;;;;;;;31.67;13.03;;;;;;;5.00;100.00;100602.41;5137008;27;20186;-80
2022/11/26 09:19:53;;;;;;;34.47;8.83;;;;;;;5.21;100.00;100614.28;5137078;27;20183;-80
2022/11/26 09:22:21;;;;;;;10.00;6.50;;;;;;;5.32;100.00;100610.59;5126463;27;20225;-80
2022/11/26 09:24:51;;;;;;;27.10;7.93;;;;;;;5.37;100.00;100621.00;5133118;27;20187;-80
2022/11/26 09:27:19;;;;;;;46.63;8.17;;;;;;;4.96;100.00;100625.25;5137199;27;20219;-80
2022/11/26 09:29:48;;;;;;;39.73;8.10;;;;;;;5.13;100.00;100636.31;5087878;28;20257;-80
2022/11/26 09:32:16;;;;;;;42.03;7.00;;;;;;;5.08;100.00;100635.53;5086591;28;20230;-80
2022/11/26 09:35:00;;;;;;;24.83;6.10;;;;;;;5.31;100.00;100636.88;5088665;28;20211;-80
2022/11/26 09:37:29;;;;;;;15.83;5.77;;;;;;;5.34;100.00;100640.31;5092922;28;20187;-80
2022/11/26 09:39:59;;;;;;;21.63;6.57;;;;;;;5.33;100.00;100632.47;5097717;28;20199;-81
2022/11/26 09:42:41;;;;;;;12.20;6.20;;;;;;;5.62;100.00;100642.41;5087374;28;20225;-80
2022/11/26 09:45:18;;;;;;;13.03;5.57;;;;;;;5.43;100.00;100640.13;5087063;28;20203;-80
2022/11/26 09:47:52;;;;;;;13.33;6.37;;;;;;;5.55;100.00;100639.03;5108017;27;20183;-80
2022/11/26 09:50:27;;;;;;;9.37;6.40;;;;;;;5.79;100.00;100636.78;5133579;27;20198;-80
2022/11/26 09:53:00;;;;;;;11.17;6.53;;;;;;;5.73;100.00;100635.16;5131790;27;20186;-80
2022/11/26 09:55:32;;;;;;;11.90;6.57;;;;;;;5.79;100.00;100635.06;5125787;27;20218;-80
2022/11/26 09:58:10;;;;;;;11.13;6.70;;;;;;;5.82;100.00;100628.88;5130023;27;20198;-80
2022/11/26 10:00:40;;;;;;;10.00;6.40;;;;;;;6.01;100.00;100636.34;5099669;27;20190;-80
2022/11/26 10:03:14;;;;;;;9.90;6.80;;;;;;;6.12;100.00;100635.25;5131325;27;20201;-80
2022/11/26 10:05:55;;;;;;;13.47;7.03;;;;;;;6.18;100.00;100628.09;5130717;27;20190;-80
2022/11/26 10:08:56;;;;;;;13.87;7.83;;;;;;;6.41;100.00;100617.03;5129805;27;20205;-80
2022/11/26 10:11:35;;;;;;;11.70;7.00;;;;;;;6.77;100.00;100614.44;5127982;27;20194;-80
2022/11/26 10:14:17;;;;;;;17.50;8.47;;;;;;;7.01;100.00;100608.53;5135923;27;20217;-80
2022/11/26 10:16:55;;;;;;;13.90;7.07;;;;;;;7.15;100.00;100605.53;5126689;27;20255;-80
2022/11/26 10:19:35;;;;;;;14.43;7.03;;;;;;;6.97;100.00;100601.63;5131312;27;20668;-80
2022/11/26 10:22:06;;;;;;;13.60;6.73;;;;;;;6.78;100.00;100597.72;5137058;27;20190;-80
2022/11/26 10:24:40;;;;;;;12.80;8.57;;;;;;;6.82;100.00;100605.50;5137397;27;20198;-80
2022/11/26 10:27:15;;;;;;;21.03;13.73;;;;;;;6.92;100.00;100606.13;5130624;27;20228;-80
2022/11/26 10:29:48;;;;;;;14.97;9.60;;;;;;;6.99;100.00;100599.81;5127421;27;20247;-80
2022/11/26 10:32:25;;;;;;;15.43;10.50;;;;;;;6.95;100.00;100595.53;5131689;27;20215;-80
2022/11/26 10:34:56;;;;;;;11.33;7.90;;;;;;;7.00;100.00;100601.53;5115204;28;20198;-80
2022/11/26 10:37:27;;;;;;;12.47;6.87;;;;;;;7.14;100.00;100593.25;5112319;28;20260;-80
2022/11/26 10:40:06;;;;;;;19.50;12.93;;;;;;;7.16;100.00;100597.59;5109526;28;20195;-80
2022/11/26 10:42:43;;;;;;;10.03;7.90;;;;;;;7.29;100.00;100584.06;5110641;28;20251;-80
2022/11/26 10:45:18;;;;;;;14.47;8.93;;;;;;;7.31;100.00;100588.38;5110081;28;20190;-80
2022/11/26 10:47:47;;;;;;;15.70;10.17;;;;;;;7.40;100.00;100595.19;5051992;28;20192;-80
2022/11/26 10:50:21;;;;;;;28.03;17.53;;;;;;;7.33;100.00;100585.69;4992759;28;20199;-80
2022/11/26 10:53:20;;;;;;;13.97;8.00;;;;;;;7.52;100.00;100586.91;4992947;28;20286;-80
2022/11/26 10:55:51;;;;;;;11.40;7.03;;;;;;;7.55;100.00;100584.22;4989292;28;20222;-79
2022/11/26 10:58:24;;;;;;;16.23;8.57;;;;;;;7.50;100.00;100586.09;4985960;28;20227;-80
2022/11/26 11:00:59;;;;;;;16.80;8.00;;;;;;;7.35;100.00;100576.88;4991065;28;20191;-80
2022/11/26 11:03:31;;;;;;;14.70;8.13;;;;;;;7.43;100.00;100572.25;4984280;28;20202;-80
2022/11/26 11:06:34;;;;;;;13.40;9.47;;;;;;;7.36;100.00;100577.72;4965465;28;20205;-80
2022/11/26 11:09:22;;;;;;;14.10;7.93;;;;;;;7.16;100.00;100589.69;4987532;28;20673;-80
2022/11/26 11:12:15;;;;;;;15.00;8.50;;;;;;;7.31;100.00;100584.88;4996248;28;20197;-80
2022/11/26 11:14:45;;;;;;;15.63;8.87;;;;;;;7.45;100.00;100588.88;5058488;28;20199;-80
2022/11/26 11:17:30;;;;;;;19.03;9.50;;;;;;;7.42;100.00;100583.66;5108531;28;20307;-80
2022/11/26 11:20:01;;;;;;;16.17;9.40;;;;;;;7.15;100.00;100587.97;5111415;28;20260;-80
2022/11/26 11:22:29;;;;;;;20.67;9.83;;;;;;;7.27;100.00;100584.13;5109984;28;20191;-80
2022/11/26 11:25:00;;;;;;;16.77;9.07;;;;;;;7.43;100.00;100582.78;5109718;28;20245;-80
2022/11/26 11:27:39;;;;;;;20.57;10.83;;;;;;;7.25;100.00;100579.81;5109653;28;20669;-80
2022/11/26 11:30:24;;;;;;;19.00;9.97;;;;;;;7.37;100.00;100569.78;5104629;28;20194;-80
2022/11/26 11:32:56;;;;;;;16.43;10.03;;;;;;;7.70;100.00;100572.34;5120131;27;20222;-80
2022/11/26 11:35:26;;;;;;;17.37;9.97;;;;;;;7.53;100.00;100569.31;5130410;27;20205;-80
2022/11/26 11:37:58;;;;;;;18.50;10.37;;;;;;;7.73;100.00;100567.00;5132160;27;20214;-80